sensor_id;sensor_type;location;lat;lon;timestamp;P1;durP1;ratioP1;P2;durP2;ratioP2
6342;SDS011;3204;42.698;23.298;2023-11-19T00:00:39;3.83;;;3.63;;
6342;SDS011;3204;42.698;23.298;2023-11-19T00:03:04;3.90;;;3.70;;
6342;SDS011;3204;42.698;23.298;2023-11-19T00:05:30;4.00;;;3.70;;
6342;SDS011;3204;42.698;23.298;2023-11-19T00:07:56;4.00;;;3.80;;
6342;SDS011;3204;42.698;23.298;2023-11-19T00:10:21;3.97;;;3.77;;
6342;SDS011;3204;42.698;23.298;2023-11-19T00:12:48;3.60;;;3.50;;
6342;SDS011;3204;42.698;23.298;2023-11-19T00:15:15;3.97;;;3.43;;
6342;SDS011;3204;42.698;23.298;2023-11-19T00:17:41;3.53;;;3.40;;
6342;SDS011;3204;42.698;23.298;2023-11-19T00:20:12;4.10;;;3.80;;
6342;SDS011;3204;42.698;23.298;2023-11-19T00:22:39;4.47;;;4.27;;
6342;SDS011;3204;42.698;23.298;2023-11-19T00:25:06;3.70;;;3.60;;
6342;SDS011;3204;42.698;23.298;2023-11-19T00:27:32;4.40;;;4.20;;
6342;SDS011;3204;42.698;23.298;2023-11-19T00:29:58;4.47;;;4.27;;
6342;SDS011;3204;42.698;23.298;2023-11-19T00:32:23;5.50;;;5.20;;
6342;SDS011;3204;42.698;23.298;2023-11-19T00:34:49;6.70;;;6.30;;
6342;SDS011;3204;42.698;23.298;2023-11-19T00:37:14;5.47;;;5.00;;
6342;SDS011;3204;42.698;23.298;2023-11-19T00:39:41;5.10;;;4.80;;
6342;SDS011;3204;42.698;23.298;2023-11-19T00:42:09;4.60;;;4.40;;
6342;SDS011;3204;42.698;23.298;2023-11-19T00:44:39;4.43;;;4.23;;
6342;SDS011;3204;42.698;23.298;2023-11-19T00:47:04;4.13;;;3.93;;
6342;SDS011;3204;42.698;23.298;2023-11-19T00:49:30;3.97;;;3.77;;
6342;SDS011;3204;42.698;23.298;2023-11-19T00:51:57;4.00;;;3.80;;
6342;SDS011;3204;42.698;23.298;2023-11-19T00:54:24;4.43;;;4.17;;
6342;SDS011;3204;42.698;23.298;2023-11-19T00:56:51;4.13;;;3.93;;
6342;SDS011;3204;42.698;23.298;2023-11-19T00:59:19;4.17;;;3.90;;
6342;SDS011;3204;42.698;23.298;2023-11-19T01:01:45;3.80;;;3.60;;
6342;SDS011;3204;42.698;23.298;2023-11-19T01:04:10;4.10;;;3.90;;
6342;SDS011;3204;42.698;23.298;2023-11-19T01:06:36;4.40;;;4.20;;
6342;SDS011;3204;42.698;23.298;2023-11-19T01:09:01;3.90;;;3.70;;
6342;SDS011;3204;42.698;23.298;2023-11-19T01:11:27;3.23;;;3.13;;
6342;SDS011;3204;42.698;23.298;2023-11-19T01:13:53;3.90;;;3.60;;
6342;SDS011;3204;42.698;23.298;2023-11-19T01:16:18;3.80;;;3.50;;
6342;SDS011;3204;42.698;23.298;2023-11-19T01:18:48;3.70;;;3.50;;
6342;SDS011;3204;42.698;23.298;2023-11-19T01:21:14;3.83;;;3.63;;
6342;SDS011;3204;42.698;23.298;2023-11-19T01:23:40;3.93;;;3.73;;
6342;SDS011;3204;42.698;23.298;2023-11-19T01:26:09;3.77;;;3.53;;
6342;SDS011;3204;42.698;23.298;2023-11-19T01:28:35;3.20;;;3.10;;
6342;SDS011;3204;42.698;23.298;2023-11-19T01:31:01;3.70;;;3.50;;
6342;SDS011;3204;42.698;23.298;2023-11-19T01:33:28;3.83;;;3.63;;
6342;SDS011;3204;42.698;23.298;2023-11-19T01:35:53;3.77;;;3.67;;
6342;SDS011;3204;42.698;23.298;2023-11-19T01:38:19;3.87;;;3.67;;
6342;SDS011;3204;42.698;23.298;2023-11-19T01:40:44;3.67;;;3.57;;
6342;SDS011;3204;42.698;23.298;2023-11-19T01:43:10;4.37;;;4.07;;
6342;SDS011;3204;42.698;23.298;2023-11-19T01:45:36;3.87;;;3.67;;
6342;SDS011;3204;42.698;23.298;2023-11-19T01:48:03;3.43;;;3.23;;
6342;SDS011;3204;42.698;23.298;2023-11-19T01:50:29;3.50;;;3.40;;
6342;SDS011;3204;42.698;23.298;2023-11-19T01:52:55;5.23;;;4.93;;
6342;SDS011;3204;42.698;23.298;2023-11-19T01:55:25;10.63;;;8.00;;
6342;SDS011;3204;42.698;23.298;2023-11-19T01:57:53;5.67;;;4.43;;
6342;SDS011;3204;42.698;23.298;2023-11-19T02:00:20;3.73;;;3.53;;
6342;SDS011;3204;42.698;23.298;2023-11-19T02:02:46;3.13;;;3.03;;
6342;SDS011;3204;42.698;23.298;2023-11-19T02:05:13;3.57;;;3.37;;
6342;SDS011;3204;42.698;23.298;2023-11-19T02:07:39;3.30;;;3.20;;
6342;SDS011;3204;42.698;23.298;2023-11-19T02:10:05;3.13;;;3.03;;
6342;SDS011;3204;42.698;23.298;2023-11-19T02:12:37;3.37;;;3.17;;
6342;SDS011;3204;42.698;23.298;2023-11-19T02:15:03;3.33;;;3.23;;
6342;SDS011;3204;42.698;23.298;2023-11-19T02:17:29;2.90;;;2.80;;
6342;SDS011;3204;42.698;23.298;2023-11-19T02:19:59;3.50;;;3.37;;
6342;SDS011;3204;42.698;23.298;2023-11-19T02:22:25;3.60;;;3.40;;
6342;SDS011;3204;42.698;23.298;2023-11-19T02:24:51;2.97;;;2.87;;
6342;SDS011;3204;42.698;23.298;2023-11-19T02:30:09;3.20;;;3.10;;
6342;SDS011;3204;42.698;23.298;2023-11-19T02:32:36;3.70;;;3.50;;
6342;SDS011;3204;42.698;23.298;2023-11-19T02:35:05;3.47;;;3.27;;
6342;SDS011;3204;42.698;23.298;2023-11-19T02:37:30;3.20;;;3.10;;
6342;SDS011;3204;42.698;23.298;2023-11-19T02:39:56;3.27;;;3.17;;
6342;SDS011;3204;42.698;23.298;2023-11-19T02:42:21;3.47;;;3.33;;
6342;SDS011;3204;42.698;23.298;2023-11-19T02:44:46;3.87;;;3.67;;
6342;SDS011;3204;42.698;23.298;2023-11-19T02:47:13;4.70;;;4.50;;
6342;SDS011;3204;42.698;23.298;2023-11-19T02:49:39;4.90;;;4.60;;
6342;SDS011;3204;42.698;23.298;2023-11-19T02:52:04;3.40;;;3.20;;
6342;SDS011;3204;42.698;23.298;2023-11-19T02:54:31;3.90;;;3.70;;
6342;SDS011;3204;42.698;23.298;2023-11-19T02:56:59;3.87;;;3.73;;
6342;SDS011;3204;42.698;23.298;2023-11-19T02:59:26;3.53;;;3.43;;
6342;SDS011;3204;42.698;23.298;2023-11-19T03:01:53;3.80;;;3.50;;
6342;SDS011;3204;42.698;23.298;2023-11-19T03:04:19;3.97;;;3.77;;
6342;SDS011;3204;42.698;23.298;2023-11-19T03:06:48;3.27;;;3.17;;
6342;SDS011;3204;42.698;23.298;2023-11-19T03:09:14;3.63;;;3.43;;
6342;SDS011;3204;42.698;23.298;2023-11-19T03:11:39;3.73;;;3.53;;
6342;SDS011;3204;42.698;23.298;2023-11-19T03:14:05;3.43;;;3.33;;
6342;SDS011;3204;42.698;23.298;2023-11-19T03:16:30;3.70;;;3.50;;
6342;SDS011;3204;42.698;23.298;2023-11-19T03:18:56;3.47;;;3.37;;
6342;SDS011;3204;42.698;23.298;2023-11-19T03:21:28;3.40;;;3.30;;
6342;SDS011;3204;42.698;23.298;2023-11-19T03:23:54;3.40;;;3.30;;
6342;SDS011;3204;42.698;23.298;2023-11-19T03:26:19;3.57;;;3.30;;
6342;SDS011;3204;42.698;23.298;2023-11-19T03:28:45;3.70;;;3.50;;
6342;SDS011;3204;42.698;23.298;2023-11-19T03:31:10;3.67;;;3.47;;
6342;SDS011;3204;42.698;23.298;2023-11-19T03:33:35;3.80;;;3.60;;
6342;SDS011;3204;42.698;23.298;2023-11-19T03:36:02;4.00;;;3.80;;
6342;SDS011;3204;42.698;23.298;2023-11-19T03:38:28;3.90;;;3.70;;
6342;SDS011;3204;42.698;23.298;2023-11-19T03:40:53;4.10;;;3.90;;
6342;SDS011;3204;42.698;23.298;2023-11-19T03:43:18;3.20;;;3.10;;
6342;SDS011;3204;42.698;23.298;2023-11-19T03:45:44;3.90;;;3.70;;
6342;SDS011;3204;42.698;23.298;2023-11-19T03:48:09;4.00;;;3.80;;
6342;SDS011;3204;42.698;23.298;2023-11-19T03:50:35;4.00;;;3.77;;
6342;SDS011;3204;42.698;23.298;2023-11-19T03:53:00;3.80;;;3.20;;
6342;SDS011;3204;42.698;23.298;2023-11-19T03:55:26;3.70;;;3.50;;
6342;SDS011;3204;42.698;23.298;2023-11-19T03:57:51;3.57;;;3.43;;
6342;SDS011;3204;42.698;23.298;2023-11-19T04:00:17;3.30;;;3.20;;
6342;SDS011;3204;42.698;23.298;2023-11-19T04:02:42;3.20;;;3.00;;
6342;SDS011;3204;42.698;23.298;2023-11-19T04:05:08;3.60;;;3.33;;
6342;SDS011;3204;42.698;23.298;2023-11-19T04:07:34;3.20;;;3.10;;
6342;SDS011;3204;42.698;23.298;2023-11-19T04:10:00;3.90;;;3.70;;
6342;SDS011;3204;42.698;23.298;2023-11-19T04:12:26;5.63;;;5.33;;
6342;SDS011;3204;42.698;23.298;2023-11-19T04:14:51;4.10;;;3.80;;
6342;SDS011;3204;42.698;23.298;2023-11-19T04:17:17;4.13;;;3.83;;
6342;SDS011;3204;42.698;23.298;2023-11-19T04:19:42;3.87;;;3.70;;
6342;SDS011;3204;42.698;23.298;2023-11-19T04:22:08;4.10;;;3.90;;
6342;SDS011;3204;42.698;23.298;2023-11-19T04:24:34;3.53;;;3.43;;
6342;SDS011;3204;42.698;23.298;2023-11-19T04:27:00;3.80;;;3.60;;
6342;SDS011;3204;42.698;23.298;2023-11-19T04:29:25;4.00;;;3.80;;
6342;SDS011;3204;42.698;23.298;2023-11-19T04:31:50;3.53;;;3.33;;
6342;SDS011;3204;42.698;23.298;2023-11-19T04:34:16;4.27;;;4.07;;
6342;SDS011;3204;42.698;23.298;2023-11-19T04:36:41;4.07;;;3.87;;
6342;SDS011;3204;42.698;23.298;2023-11-19T04:39:07;4.10;;;3.90;;
6342;SDS011;3204;42.698;23.298;2023-11-19T04:41:46;4.13;;;3.93;;
6342;SDS011;3204;42.698;23.298;2023-11-19T04:44:15;4.03;;;3.83;;
6342;SDS011;3204;42.698;23.298;2023-11-19T04:46:41;5.97;;;5.47;;
6342;SDS011;3204;42.698;23.298;2023-11-19T04:49:09;5.90;;;5.50;;
6342;SDS011;3204;42.698;23.298;2023-11-19T04:51:42;5.27;;;4.97;;
6342;SDS011;3204;42.698;23.298;2023-11-19T04:54:08;3.90;;;3.70;;
6342;SDS011;3204;42.698;23.298;2023-11-19T04:56:35;4.40;;;4.20;;
6342;SDS011;3204;42.698;23.298;2023-11-19T04:59:02;3.97;;;3.77;;
6342;SDS011;3204;42.698;23.298;2023-11-19T05:01:28;4.27;;;4.07;;
6342;SDS011;3204;42.698;23.298;2023-11-19T05:03:53;3.80;;;3.43;;
6342;SDS011;3204;42.698;23.298;2023-11-19T05:06:18;3.80;;;3.60;;
6342;SDS011;3204;42.698;23.298;2023-11-19T05:08:44;4.47;;;4.27;;
6342;SDS011;3204;42.698;23.298;2023-11-19T05:11:10;4.40;;;4.20;;
6342;SDS011;3204;42.698;23.298;2023-11-19T05:13:37;3.83;;;3.63;;
6342;SDS011;3204;42.698;23.298;2023-11-19T05:16:03;3.90;;;3.70;;
6342;SDS011;3204;42.698;23.298;2023-11-19T05:18:28;3.93;;;3.67;;
6342;SDS011;3204;42.698;23.298;2023-11-19T05:20:54;3.47;;;3.37;;
6342;SDS011;3204;42.698;23.298;2023-11-19T05:23:19;3.93;;;3.73;;
6342;SDS011;3204;42.698;23.298;2023-11-19T05:25:45;3.70;;;3.50;;
6342;SDS011;3204;42.698;23.298;2023-11-19T05:28:10;3.50;;;3.30;;
6342;SDS011;3204;42.698;23.298;2023-11-19T05:30:36;3.60;;;3.40;;
6342;SDS011;3204;42.698;23.298;2023-11-19T05:33:01;4.00;;;3.80;;
6342;SDS011;3204;42.698;23.298;2023-11-19T05:35:27;3.73;;;3.53;;
6342;SDS011;3204;42.698;23.298;2023-11-19T05:37:52;4.07;;;3.87;;
6342;SDS011;3204;42.698;23.298;2023-11-19T05:40:18;4.37;;;4.17;;
6342;SDS011;3204;42.698;23.298;2023-11-19T05:42:45;3.63;;;3.43;;
6342;SDS011;3204;42.698;23.298;2023-11-19T05:45:11;3.80;;;3.60;;
6342;SDS011;3204;42.698;23.298;2023-11-19T05:47:37;4.40;;;4.20;;
6342;SDS011;3204;42.698;23.298;2023-11-19T05:50:02;4.53;;;4.13;;
6342;SDS011;3204;42.698;23.298;2023-11-19T05:52:30;3.53;;;3.33;;
6342;SDS011;3204;42.698;23.298;2023-11-19T05:54:59;3.90;;;3.50;;
6342;SDS011;3204;42.698;23.298;2023-11-19T05:57:27;4.97;;;4.70;;
6342;SDS011;3204;42.698;23.298;2023-11-19T05:59:54;4.37;;;4.17;;
6342;SDS011;3204;42.698;23.298;2023-11-19T06:02:19;3.90;;;3.70;;
6342;SDS011;3204;42.698;23.298;2023-11-19T06:04:45;3.77;;;3.57;;
6342;SDS011;3204;42.698;23.298;2023-11-19T06:07:12;4.47;;;4.27;;
6342;SDS011;3204;42.698;23.298;2023-11-19T06:09:38;3.83;;;3.63;;
6342;SDS011;3204;42.698;23.298;2023-11-19T06:12:05;4.80;;;4.00;;
6342;SDS011;3204;42.698;23.298;2023-11-19T06:14:31;4.00;;;3.70;;
6342;SDS011;3204;42.698;23.298;2023-11-19T06:16:56;4.87;;;4.47;;
6342;SDS011;3204;42.698;23.298;2023-11-19T06:19:22;4.43;;;4.23;;
6342;SDS011;3204;42.698;23.298;2023-11-19T06:21:49;4.40;;;4.20;;
6342;SDS011;3204;42.698;23.298;2023-11-19T06:24:15;4.30;;;4.10;;
6342;SDS011;3204;42.698;23.298;2023-11-19T06:26:40;5.03;;;4.67;;
6342;SDS011;3204;42.698;23.298;2023-11-19T06:29:05;4.27;;;4.07;;
6342;SDS011;3204;42.698;23.298;2023-11-19T06:31:31;5.17;;;4.60;;
6342;SDS011;3204;42.698;23.298;2023-11-19T06:33:56;5.00;;;4.70;;
6342;SDS011;3204;42.698;23.298;2023-11-19T06:36:22;6.17;;;4.07;;
6342;SDS011;3204;42.698;23.298;2023-11-19T06:38:47;4.23;;;4.03;;
6342;SDS011;3204;42.698;23.298;2023-11-19T06:41:12;4.50;;;4.20;;
6342;SDS011;3204;42.698;23.298;2023-11-19T06:43:38;4.30;;;4.10;;
6342;SDS011;3204;42.698;23.298;2023-11-19T06:46:04;4.20;;;3.83;;
6342;SDS011;3204;42.698;23.298;2023-11-19T06:48:33;5.40;;;4.97;;
6342;SDS011;3204;42.698;23.298;2023-11-19T06:50:59;5.20;;;4.80;;
6342;SDS011;3204;42.698;23.298;2023-11-19T06:53:25;6.13;;;5.63;;
6342;SDS011;3204;42.698;23.298;2023-11-19T06:55:52;5.40;;;4.83;;
6342;SDS011;3204;42.698;23.298;2023-11-19T06:58:18;4.37;;;4.17;;
6342;SDS011;3204;42.698;23.298;2023-11-19T07:00:44;4.80;;;4.60;;
6342;SDS011;3204;42.698;23.298;2023-11-19T07:03:10;4.73;;;4.43;;
6342;SDS011;3204;42.698;23.298;2023-11-19T07:05:36;5.30;;;5.00;;
6342;SDS011;3204;42.698;23.298;2023-11-19T07:08:05;4.90;;;4.70;;
6342;SDS011;3204;42.698;23.298;2023-11-19T07:10:32;4.90;;;4.60;;
6342;SDS011;3204;42.698;23.298;2023-11-19T07:12:58;4.97;;;4.67;;
6342;SDS011;3204;42.698;23.298;2023-11-19T07:15:24;4.00;;;3.77;;
6342;SDS011;3204;42.698;23.298;2023-11-19T07:17:49;4.83;;;4.53;;
6342;SDS011;3204;42.698;23.298;2023-11-19T07:20:15;4.77;;;4.47;;
6342;SDS011;3204;42.698;23.298;2023-11-19T07:22:42;5.07;;;4.70;;
6342;SDS011;3204;42.698;23.298;2023-11-19T07:25:10;5.50;;;5.10;;
6342;SDS011;3204;42.698;23.298;2023-11-19T07:27:37;6.83;;;4.70;;
6342;SDS011;3204;42.698;23.298;2023-11-19T07:30:03;4.27;;;4.07;;
6342;SDS011;3204;42.698;23.298;2023-11-19T07:32:30;4.23;;;4.03;;
6342;SDS011;3204;42.698;23.298;2023-11-19T07:34:55;4.67;;;4.37;;
6342;SDS011;3204;42.698;23.298;2023-11-19T07:37:21;3.97;;;3.77;;
6342;SDS011;3204;42.698;23.298;2023-11-19T07:39:47;4.63;;;4.33;;
6342;SDS011;3204;42.698;23.298;2023-11-19T07:42:12;5.73;;;5.23;;
6342;SDS011;3204;42.698;23.298;2023-11-19T07:44:38;4.43;;;4.13;;
6342;SDS011;3204;42.698;23.298;2023-11-19T07:47:03;4.80;;;4.50;;
6342;SDS011;3204;42.698;23.298;2023-11-19T07:49:29;4.87;;;4.67;;
6342;SDS011;3204;42.698;23.298;2023-11-19T07:51:56;5.63;;;5.33;;
6342;SDS011;3204;42.698;23.298;2023-11-19T07:54:21;6.10;;;5.70;;
6342;SDS011;3204;42.698;23.298;2023-11-19T07:56:47;6.63;;;6.03;;
6342;SDS011;3204;42.698;23.298;2023-11-19T07:59:12;5.47;;;5.10;;
6342;SDS011;3204;42.698;23.298;2023-11-19T08:01:37;6.13;;;5.73;;
6342;SDS011;3204;42.698;23.298;2023-11-19T08:04:03;6.03;;;5.63;;
6342;SDS011;3204;42.698;23.298;2023-11-19T08:06:28;6.03;;;5.73;;
6342;SDS011;3204;42.698;23.298;2023-11-19T08:08:54;6.57;;;6.00;;
6342;SDS011;3204;42.698;23.298;2023-11-19T08:11:19;6.33;;;5.90;;
6342;SDS011;3204;42.698;23.298;2023-11-19T08:13:45;4.43;;;4.23;;
6342;SDS011;3204;42.698;23.298;2023-11-19T08:16:10;7.43;;;4.80;;
6342;SDS011;3204;42.698;23.298;2023-11-19T08:18:36;5.63;;;4.80;;
6342;SDS011;3204;42.698;23.298;2023-11-19T08:21:01;5.37;;;5.07;;
6342;SDS011;3204;42.698;23.298;2023-11-19T08:23:29;5.70;;;5.40;;
6342;SDS011;3204;42.698;23.298;2023-11-19T08:25:55;5.93;;;5.50;;
6342;SDS011;3204;42.698;23.298;2023-11-19T08:28:20;6.97;;;6.47;;
6342;SDS011;3204;42.698;23.298;2023-11-19T08:30:46;6.17;;;5.53;;
6342;SDS011;3204;42.698;23.298;2023-11-19T08:33:12;5.00;;;4.80;;
6342;SDS011;3204;42.698;23.298;2023-11-19T08:35:37;5.00;;;4.70;;
6342;SDS011;3204;42.698;23.298;2023-11-19T08:38:02;4.60;;;4.40;;
6342;SDS011;3204;42.698;23.298;2023-11-19T08:40:28;5.10;;;4.80;;
6342;SDS011;3204;42.698;23.298;2023-11-19T08:42:55;4.93;;;4.63;;
6342;SDS011;3204;42.698;23.298;2023-11-19T08:45:21;5.90;;;5.50;;
6342;SDS011;3204;42.698;23.298;2023-11-19T08:47:46;5.40;;;5.10;;
6342;SDS011;3204;42.698;23.298;2023-11-19T08:50:12;5.80;;;5.40;;
6342;SDS011;3204;42.698;23.298;2023-11-19T08:52:37;5.37;;;5.00;;
6342;SDS011;3204;42.698;23.298;2023-11-19T08:55:03;5.67;;;5.37;;
6342;SDS011;3204;42.698;23.298;2023-11-19T08:57:30;7.77;;;6.17;;
6342;SDS011;3204;42.698;23.298;2023-11-19T08:59:56;6.87;;;6.27;;
6342;SDS011;3204;42.698;23.298;2023-11-19T09:02:21;5.03;;;4.73;;
6342;SDS011;3204;42.698;23.298;2023-11-19T09:04:47;5.07;;;4.67;;
6342;SDS011;3204;42.698;23.298;2023-11-19T09:07:13;4.80;;;4.50;;
6342;SDS011;3204;42.698;23.298;2023-11-19T09:09:38;5.50;;;5.10;;
6342;SDS011;3204;42.698;23.298;2023-11-19T09:12:03;5.47;;;5.17;;
6342;SDS011;3204;42.698;23.298;2023-11-19T09:14:29;4.80;;;4.60;;
6342;SDS011;3204;42.698;23.298;2023-11-19T09:16:55;4.73;;;4.53;;
6342;SDS011;3204;42.698;23.298;2023-11-19T09:19:21;6.50;;;4.67;;
6342;SDS011;3204;42.698;23.298;2023-11-19T09:21:47;4.80;;;4.40;;
6342;SDS011;3204;42.698;23.298;2023-11-19T09:24:14;5.40;;;5.10;;
6342;SDS011;3204;42.698;23.298;2023-11-19T09:26:40;6.13;;;5.73;;
6342;SDS011;3204;42.698;23.298;2023-11-19T09:29:09;6.33;;;5.83;;
6342;SDS011;3204;42.698;23.298;2023-11-19T09:31:34;4.97;;;4.50;;
6342;SDS011;3204;42.698;23.298;2023-11-19T09:34:00;5.13;;;4.83;;
6342;SDS011;3204;42.698;23.298;2023-11-19T09:36:26;6.90;;;6.20;;
6342;SDS011;3204;42.698;23.298;2023-11-19T09:38:51;7.17;;;6.63;;
6342;SDS011;3204;42.698;23.298;2023-11-19T09:41:17;6.23;;;5.77;;
6342;SDS011;3204;42.698;23.298;2023-11-19T09:43:44;5.87;;;5.40;;
6342;SDS011;3204;42.698;23.298;2023-11-19T09:46:10;4.63;;;4.33;;
6342;SDS011;3204;42.698;23.298;2023-11-19T09:48:37;4.30;;;4.10;;
6342;SDS011;3204;42.698;23.298;2023-11-19T09:51:04;5.10;;;4.80;;
6342;SDS011;3204;42.698;23.298;2023-11-19T09:53:30;4.73;;;4.43;;
6342;SDS011;3204;42.698;23.298;2023-11-19T09:55:56;5.13;;;4.67;;
6342;SDS011;3204;42.698;23.298;2023-11-19T09:58:24;4.20;;;4.00;;
6342;SDS011;3204;42.698;23.298;2023-11-19T10:00:51;4.47;;;4.27;;
6342;SDS011;3204;42.698;23.298;2023-11-19T10:03:17;5.40;;;5.00;;
6342;SDS011;3204;42.698;23.298;2023-11-19T10:05:42;3.93;;;3.73;;
6342;SDS011;3204;42.698;23.298;2023-11-19T10:08:07;4.10;;;3.80;;
6342;SDS011;3204;42.698;23.298;2023-11-19T10:10:33;4.63;;;4.43;;
6342;SDS011;3204;42.698;23.298;2023-11-19T10:12:59;7.37;;;6.83;;
6342;SDS011;3204;42.698;23.298;2023-11-19T10:15:26;5.30;;;4.93;;
6342;SDS011;3204;42.698;23.298;2023-11-19T10:17:52;3.77;;;3.57;;
6342;SDS011;3204;42.698;23.298;2023-11-19T10:20:26;4.20;;;4.00;;
6342;SDS011;3204;42.698;23.298;2023-11-19T10:22:52;4.50;;;4.20;;
6342;SDS011;3204;42.698;23.298;2023-11-19T10:25:24;4.47;;;4.27;;
6342;SDS011;3204;42.698;23.298;2023-11-19T10:27:51;4.13;;;3.93;;
6342;SDS011;3204;42.698;23.298;2023-11-19T10:30:19;4.40;;;4.20;;
6342;SDS011;3204;42.698;23.298;2023-11-19T10:32:47;4.70;;;4.50;;
6342;SDS011;3204;42.698;23.298;2023-11-19T10:35:31;4.90;;;4.57;;
6342;SDS011;3204;42.698;23.298;2023-11-19T10:37:58;5.30;;;5.00;;
6342;SDS011;3204;42.698;23.298;2023-11-19T10:40:36;3.90;;;3.70;;
6342;SDS011;3204;42.698;23.298;2023-11-19T10:43:02;4.57;;;4.27;;
6342;SDS011;3204;42.698;23.298;2023-11-19T10:45:28;5.33;;;5.03;;
6342;SDS011;3204;42.698;23.298;2023-11-19T10:47:54;4.70;;;4.40;;
6342;SDS011;3204;42.698;23.298;2023-11-19T10:50:20;5.17;;;4.87;;
6342;SDS011;3204;42.698;23.298;2023-11-19T10:52:45;4.90;;;4.60;;
6342;SDS011;3204;42.698;23.298;2023-11-19T10:55:13;4.10;;;3.90;;
6342;SDS011;3204;42.698;23.298;2023-11-19T10:57:43;3.80;;;3.60;;
6342;SDS011;3204;42.698;23.298;2023-11-19T11:00:14;4.90;;;4.60;;
6342;SDS011;3204;42.698;23.298;2023-11-19T11:02:44;4.20;;;4.00;;
6342;SDS011;3204;42.698;23.298;2023-11-19T11:05:14;3.70;;;3.50;;
6342;SDS011;3204;42.698;23.298;2023-11-19T11:07:41;4.87;;;4.57;;
6342;SDS011;3204;42.698;23.298;2023-11-19T11:10:09;3.80;;;3.60;;
6342;SDS011;3204;42.698;23.298;2023-11-19T11:12:36;3.87;;;3.67;;
6342;SDS011;3204;42.698;23.298;2023-11-19T11:15:06;3.47;;;3.17;;
6342;SDS011;3204;42.698;23.298;2023-11-19T11:17:33;4.70;;;4.07;;
6342;SDS011;3204;42.698;23.298;2023-11-19T11:19:59;4.00;;;3.80;;
6342;SDS011;3204;42.698;23.298;2023-11-19T11:22:25;2.80;;;2.60;;
6342;SDS011;3204;42.698;23.298;2023-11-19T11:25:09;4.83;;;4.53;;
6342;SDS011;3204;42.698;23.298;2023-11-19T11:30:35;3.80;;;3.50;;
6342;SDS011;3204;42.698;23.298;2023-11-19T11:36:22;2.53;;;2.43;;
6342;SDS011;3204;42.698;23.298;2023-11-19T11:38:48;2.90;;;2.80;;
6342;SDS011;3204;42.698;23.298;2023-11-19T11:41:15;3.30;;;3.00;;
6342;SDS011;3204;42.698;23.298;2023-11-19T11:43:49;3.77;;;3.47;;
6342;SDS011;3204;42.698;23.298;2023-11-19T11:49:02;4.37;;;4.07;;
6342;SDS011;3204;42.698;23.298;2023-11-19T11:52:11;3.53;;;3.33;;
6342;SDS011;3204;42.698;23.298;2023-11-19T11:59:52;5.50;;;3.27;;
6342;SDS011;3204;42.698;23.298;2023-11-19T12:02:22;2.97;;;2.87;;
6342;SDS011;3204;42.698;23.298;2023-11-19T12:04:51;3.23;;;3.13;;
6342;SDS011;3204;42.698;23.298;2023-11-19T12:07:21;3.57;;;3.37;;
6342;SDS011;3204;42.698;23.298;2023-11-19T12:09:49;3.53;;;3.40;;
6342;SDS011;3204;42.698;23.298;2023-11-19T12:12:18;4.03;;;3.83;;
6342;SDS011;3204;42.698;23.298;2023-11-19T12:17:42;3.37;;;3.17;;
6342;SDS011;3204;42.698;23.298;2023-11-19T12:20:15;3.50;;;3.30;;
6342;SDS011;3204;42.698;23.298;2023-11-19T12:22:42;3.93;;;3.07;;
6342;SDS011;3204;42.698;23.298;2023-11-19T12:25:09;4.13;;;3.47;;
6342;SDS011;3204;42.698;23.298;2023-11-19T12:27:35;4.47;;;3.30;;
6342;SDS011;3204;42.698;23.298;2023-11-19T12:30:02;3.70;;;3.50;;
6342;SDS011;3204;42.698;23.298;2023-11-19T12:35:08;4.03;;;3.83;;
6342;SDS011;3204;42.698;23.298;2023-11-19T12:40:11;4.37;;;4.07;;
6342;SDS011;3204;42.698;23.298;2023-11-19T12:42:38;4.13;;;3.93;;
6342;SDS011;3204;42.698;23.298;2023-11-19T12:45:04;4.23;;;3.93;;
6342;SDS011;3204;42.698;23.298;2023-11-19T12:47:30;5.67;;;4.40;;
6342;SDS011;3204;42.698;23.298;2023-11-19T12:49:56;4.37;;;4.07;;
6342;SDS011;3204;42.698;23.298;2023-11-19T12:52:22;3.70;;;3.40;;
6342;SDS011;3204;42.698;23.298;2023-11-19T12:54:48;3.73;;;3.53;;
6342;SDS011;3204;42.698;23.298;2023-11-19T12:57:14;3.60;;;3.40;;
6342;SDS011;3204;42.698;23.298;2023-11-19T12:59:40;4.40;;;4.10;;
6342;SDS011;3204;42.698;23.298;2023-11-19T13:02:06;4.57;;;4.17;;
6342;SDS011;3204;42.698;23.298;2023-11-19T13:04:32;4.03;;;3.83;;
6342;SDS011;3204;42.698;23.298;2023-11-19T13:06:58;3.63;;;3.43;;
6342;SDS011;3204;42.698;23.298;2023-11-19T13:09:27;4.80;;;4.50;;
6342;SDS011;3204;42.698;23.298;2023-11-19T13:11:55;4.60;;;4.40;;
6342;SDS011;3204;42.698;23.298;2023-11-19T13:14:22;4.50;;;4.20;;
6342;SDS011;3204;42.698;23.298;2023-11-19T13:16:48;5.20;;;4.87;;
6342;SDS011;3204;42.698;23.298;2023-11-19T13:19:14;4.90;;;4.60;;
6342;SDS011;3204;42.698;23.298;2023-11-19T13:21:44;4.70;;;4.40;;
6342;SDS011;3204;42.698;23.298;2023-11-19T13:24:12;4.60;;;4.20;;
6342;SDS011;3204;42.698;23.298;2023-11-19T13:26:38;4.00;;;3.80;;
6342;SDS011;3204;42.698;23.298;2023-11-19T13:29:03;4.03;;;3.83;;
6342;SDS011;3204;42.698;23.298;2023-11-19T13:31:29;3.57;;;3.37;;
6342;SDS011;3204;42.698;23.298;2023-11-19T13:33:55;3.90;;;3.70;;
6342;SDS011;3204;42.698;23.298;2023-11-19T13:36:21;4.40;;;4.00;;
6342;SDS011;3204;42.698;23.298;2023-11-19T13:38:47;4.13;;;3.93;;
6342;SDS011;3204;42.698;23.298;2023-11-19T13:41:12;4.03;;;3.83;;
6342;SDS011;3204;42.698;23.298;2023-11-19T13:43:38;3.83;;;3.63;;
6342;SDS011;3204;42.698;23.298;2023-11-19T13:46:04;4.70;;;4.23;;
6342;SDS011;3204;42.698;23.298;2023-11-19T13:48:30;3.83;;;3.53;;
6342;SDS011;3204;42.698;23.298;2023-11-19T13:50:55;4.53;;;3.73;;
6342;SDS011;3204;42.698;23.298;2023-11-19T13:53:21;4.10;;;3.80;;
6342;SDS011;3204;42.698;23.298;2023-11-19T13:55:48;3.70;;;3.50;;
6342;SDS011;3204;42.698;23.298;2023-11-19T13:58:14;3.27;;;2.97;;
6342;SDS011;3204;42.698;23.298;2023-11-19T14:00:39;3.83;;;3.63;;
6342;SDS011;3204;42.698;23.298;2023-11-19T14:03:07;3.90;;;3.63;;
6342;SDS011;3204;42.698;23.298;2023-11-19T14:05:32;3.83;;;3.60;;
6342;SDS011;3204;42.698;23.298;2023-11-19T14:07:58;4.47;;;4.17;;
6342;SDS011;3204;42.698;23.298;2023-11-19T14:10:23;4.33;;;3.80;;
6342;SDS011;3204;42.698;23.298;2023-11-19T14:12:48;3.83;;;3.53;;
6342;SDS011;3204;42.698;23.298;2023-11-19T14:15:15;3.90;;;3.70;;
6342;SDS011;3204;42.698;23.298;2023-11-19T14:17:44;4.10;;;3.90;;
6342;SDS011;3204;42.698;23.298;2023-11-19T14:20:10;4.40;;;4.10;;
6342;SDS011;3204;42.698;23.298;2023-11-19T14:22:42;4.20;;;4.00;;
6342;SDS011;3204;42.698;23.298;2023-11-19T14:25:08;4.40;;;4.20;;
6342;SDS011;3204;42.698;23.298;2023-11-19T14:27:39;4.30;;;3.97;;
6342;SDS011;3204;42.698;23.298;2023-11-19T14:30:05;4.33;;;4.13;;
6342;SDS011;3204;42.698;23.298;2023-11-19T14:32:32;4.73;;;4.43;;
6342;SDS011;3204;42.698;23.298;2023-11-19T14:34:57;4.20;;;4.00;;
6342;SDS011;3204;42.698;23.298;2023-11-19T14:37:23;4.93;;;4.50;;
6342;SDS011;3204;42.698;23.298;2023-11-19T14:39:49;4.20;;;4.00;;
6342;SDS011;3204;42.698;23.298;2023-11-19T14:42:16;5.40;;;5.00;;
6342;SDS011;3204;42.698;23.298;2023-11-19T14:44:42;6.50;;;5.13;;
6342;SDS011;3204;42.698;23.298;2023-11-19T14:47:07;4.80;;;4.50;;
6342;SDS011;3204;42.698;23.298;2023-11-19T14:49:34;4.90;;;4.60;;
6342;SDS011;3204;42.698;23.298;2023-11-19T14:52:00;5.80;;;5.50;;
6342;SDS011;3204;42.698;23.298;2023-11-19T14:54:25;6.70;;;5.97;;
6342;SDS011;3204;42.698;23.298;2023-11-19T14:56:51;5.60;;;5.20;;
6342;SDS011;3204;42.698;23.298;2023-11-19T14:59:17;6.40;;;5.90;;
6342;SDS011;3204;42.698;23.298;2023-11-19T15:01:44;8.10;;;7.50;;
6342;SDS011;3204;42.698;23.298;2023-11-19T15:04:10;5.90;;;5.50;;
6342;SDS011;3204;42.698;23.298;2023-11-19T15:06:36;5.97;;;5.53;;
6342;SDS011;3204;42.698;23.298;2023-11-19T15:09:02;5.40;;;5.10;;
6342;SDS011;3204;42.698;23.298;2023-11-19T15:11:28;5.27;;;4.97;;
6342;SDS011;3204;42.698;23.298;2023-11-19T15:13:53;6.07;;;5.57;;
6342;SDS011;3204;42.698;23.298;2023-11-19T15:16:18;7.67;;;6.97;;
6342;SDS011;3204;42.698;23.298;2023-11-19T15:18:50;7.70;;;7.20;;
6342;SDS011;3204;42.698;23.298;2023-11-19T15:21:17;6.67;;;6.27;;